sensor_id;sensor_type;location;lat;lon;timestamp;temperature;humidity
22966;DHT22;11649;48.090;9.754;2023-03-01T00:00:09;1.40;99.90
22966;DHT22;11649;48.090;9.754;2023-03-01T00:02:36;1.40;99.90
22966;DHT22;11649;48.090;9.754;2023-03-01T00:05:03;1.50;99.90
22966;DHT22;11649;48.090;9.754;2023-03-01T00:07:30;1.40;99.90
22966;DHT22;11649;48.090;9.754;2023-03-01T00:09:57;1.40;99.90
22966;DHT22;11649;48.090;9.754;2023-03-01T00:12:24;1.40;99.90
22966;DHT22;11649;48.090;9.754;2023-03-01T00:14:51;1.40;99.90
22966;DHT22;11649;48.090;9.754;2023-03-01T00:17:17;1.40;99.90
22966;DHT22;11649;48.090;9.754;2023-03-01T00:19:44;1.30;99.90
22966;DHT22;11649;48.090;9.754;2023-03-01T00:22:11;1.30;99.90
22966;DHT22;11649;48.090;9.754;2023-03-01T00:24:37;1.30;99.90
22966;DHT22;11649;48.090;9.754;2023-03-01T00:27:04;1.30;99.90
22966;DHT22;11649;48.090;9.754;2023-03-01T00:29:31;1.30;99.90
22966;DHT22;11649;48.090;9.754;2023-03-01T00:31:57;1.30;99.90
22966;DHT22;11649;48.090;9.754;2023-03-01T00:34:24;1.30;99.90
22966;DHT22;11649;48.090;9.754;2023-03-01T00:36:51;1.30;99.90
22966;DHT22;11649;48.090;9.754;2023-03-01T00:39:18;1.30;99.90
22966;DHT22;11649;48.090;9.754;2023-03-01T00:41:44;1.40;99.90
22966;DHT22;11649;48.090;9.754;2023-03-01T00:44:11;1.40;99.90
22966;DHT22;11649;48.090;9.754;2023-03-01T00:46:38;1.40;99.90
22966;DHT22;11649;48.090;9.754;2023-03-01T00:49:05;1.40;99.90
22966;DHT22;11649;48.090;9.754;2023-03-01T00:51:32;1.30;99.90
22966;DHT22;11649;48.090;9.754;2023-03-01T00:54:01;1.20;99.90
22966;DHT22;11649;48.090;9.754;2023-03-01T00:56:29;1.30;99.90
22966;DHT22;11649;48.090;9.754;2023-03-01T00:58:57;1.30;99.90
22966;DHT22;11649;48.090;9.754;2023-03-01T01:01:26;1.20;99.90
22966;DHT22;11649;48.090;9.754;2023-03-01T01:04:03;1.20;99.90
22966;DHT22;11649;48.090;9.754;2023-03-01T01:06:35;1.20;99.90
22966;DHT22;11649;48.090;9.754;2023-03-01T01:09:05;1.20;99.90
22966;DHT22;11649;48.090;9.754;2023-03-01T01:11:32;1.20;99.90
22966;DHT22;11649;48.090;9.754;2023-03-01T01:13:59;1.20;99.90
22966;DHT22;11649;48.090;9.754;2023-03-01T01:16:27;1.20;99.90
22966;DHT22;11649;48.090;9.754;2023-03-01T01:18:55;1.20;99.90
22966;DHT22;11649;48.090;9.754;2023-03-01T01:21:23;1.20;99.90
22966;DHT22;11649;48.090;9.754;2023-03-01T01:23:51;1.20;99.90
22966;DHT22;11649;48.090;9.754;2023-03-01T01:26:23;1.20;99.90
22966;DHT22;11649;48.090;9.754;2023-03-01T01:28:51;1.20;99.90
22966;DHT22;11649;48.090;9.754;2023-03-01T01:31:19;1.10;99.90
22966;DHT22;11649;48.090;9.754;2023-03-01T01:33:46;1.10;99.90
22966;DHT22;11649;48.090;9.754;2023-03-01T01:36:13;1.20;99.90
22966;DHT22;11649;48.090;9.754;2023-03-01T01:38:40;1.10;99.90
22966;DHT22;11649;48.090;9.754;2023-03-01T01:41:10;1.00;99.90
22966;DHT22;11649;48.090;9.754;2023-03-01T01:43:42;1.00;99.90
22966;DHT22;11649;48.090;9.754;2023-03-01T01:46:18;1.10;99.90
22966;DHT22;11649;48.090;9.754;2023-03-01T01:48:59;1.20;99.90
22966;DHT22;11649;48.090;9.754;2023-03-01T01:51:31;1.20;99.90
22966;DHT22;11649;48.090;9.754;2023-03-01T01:54:15;1.20;99.90
22966;DHT22;11649;48.090;9.754;2023-03-01T01:56:45;1.20;99.90
22966;DHT22;11649;48.090;9.754;2023-03-01T01:59:14;1.30;99.90
22966;DHT22;11649;48.090;9.754;2023-03-01T02:01:42;1.20;99.90
22966;DHT22;11649;48.090;9.754;2023-03-01T02:04:09;1.20;99.90
22966;DHT22;11649;48.090;9.754;2023-03-01T02:06:41;1.20;99.90
22966;DHT22;11649;48.090;9.754;2023-03-01T02:09:13;1.20;99.90
22966;DHT22;11649;48.090;9.754;2023-03-01T02:11:42;1.20;99.90
22966;DHT22;11649;48.090;9.754;2023-03-01T02:14:10;1.20;99.90
22966;DHT22;11649;48.090;9.754;2023-03-01T02:16:37;1.10;99.90
22966;DHT22;11649;48.090;9.754;2023-03-01T02:19:04;1.20;99.90
22966;DHT22;11649;48.090;9.754;2023-03-01T02:32:56;1.10;99.90
22966;DHT22;11649;48.090;9.754;2023-03-01T02:35:32;1.10;99.90
22966;DHT22;11649;48.090;9.754;2023-03-01T02:38:01;1.10;99.90
22966;DHT22;11649;48.090;9.754;2023-03-01T02:40:33;1.10;99.90
22966;DHT22;11649;48.090;9.754;2023-03-01T02:43:00;1.00;99.90
22966;DHT22;11649;48.090;9.754;2023-03-01T02:45:27;1.00;99.90
22966;DHT22;11649;48.090;9.754;2023-03-01T02:47:55;0.90;99.90
22966;DHT22;11649;48.090;9.754;2023-03-01T02:50:52;1.00;99.90
22966;DHT22;11649;48.090;9.754;2023-03-01T02:53:32;1.10;99.90
22966;DHT22;11649;48.090;9.754;2023-03-01T02:56:00;1.10;99.90
22966;DHT22;11649;48.090;9.754;2023-03-01T02:58:26;1.10;99.90
22966;DHT22;11649;48.090;9.754;2023-03-01T03:00:53;1.00;99.90
22966;DHT22;11649;48.090;9.754;2023-03-01T03:03:21;1.10;99.90
22966;DHT22;11649;48.090;9.754;2023-03-01T03:05:48;1.10;99.90
22966;DHT22;11649;48.090;9.754;2023-03-01T03:08:15;1.10;99.90
22966;DHT22;11649;48.090;9.754;2023-03-01T03:10:50;1.00;99.90
22966;DHT22;11649;48.090;9.754;2023-03-01T03:13:17;1.10;99.90
22966;DHT22;11649;48.090;9.754;2023-03-01T03:15:45;1.00;99.90
22966;DHT22;11649;48.090;9.754;2023-03-01T03:18:15;1.10;99.90
22966;DHT22;11649;48.090;9.754;2023-03-01T03:20:44;1.10;99.90
22966;DHT22;11649;48.090;9.754;2023-03-01T03:23:11;1.10;99.90
22966;DHT22;11649;48.090;9.754;2023-03-01T03:25:38;1.20;99.90
22966;DHT22;11649;48.090;9.754;2023-03-01T03:28:06;1.20;99.90
22966;DHT22;11649;48.090;9.754;2023-03-01T03:30:38;1.10;99.90
22966;DHT22;11649;48.090;9.754;2023-03-01T03:33:06;1.10;99.90
22966;DHT22;11649;48.090;9.754;2023-03-01T03:35:39;1.10;99.90
22966;DHT22;11649;48.090;9.754;2023-03-01T03:38:08;0.90;99.90
22966;DHT22;11649;48.090;9.754;2023-03-01T03:40:50;1.00;99.90
22966;DHT22;11649;48.090;9.754;2023-03-01T03:43:20;1.00;99.90
22966;DHT22;11649;48.090;9.754;2023-03-01T03:45:49;1.00;99.90
22966;DHT22;11649;48.090;9.754;2023-03-01T03:48:16;1.00;99.90
22966;DHT22;11649;48.090;9.754;2023-03-01T03:50:57;1.10;99.90
22966;DHT22;11649;48.090;9.754;2023-03-01T03:53:25;1.10;99.90
22966;DHT22;11649;48.090;9.754;2023-03-01T03:55:52;1.10;99.90
22966;DHT22;11649;48.090;9.754;2023-03-01T03:58:22;1.10;99.90
22966;DHT22;11649;48.090;9.754;2023-03-01T04:00:52;1.10;99.90
22966;DHT22;11649;48.090;9.754;2023-03-01T04:03:20;1.00;99.90
22966;DHT22;11649;48.090;9.754;2023-03-01T04:05:47;1.10;99.90
22966;DHT22;11649;48.090;9.754;2023-03-01T04:08:14;1.10;99.90
22966;DHT22;11649;48.090;9.754;2023-03-01T04:10:44;1.20;99.90
22966;DHT22;11649;48.090;9.754;2023-03-01T04:13:14;1.20;99.90
22966;DHT22;11649;48.090;9.754;2023-03-01T04:15:42;1.20;99.90
22966;DHT22;11649;48.090;9.754;2023-03-01T04:18:16;1.20;99.90
22966;DHT22;11649;48.090;9.754;2023-03-01T04:20:43;1.20;99.90
22966;DHT22;11649;48.090;9.754;2023-03-01T04:23:17;1.30;99.90
22966;DHT22;11649;48.090;9.754;2023-03-01T04:25:55;1.30;99.90
22966;DHT22;11649;48.090;9.754;2023-03-01T04:28:42;1.30;99.90
22966;DHT22;11649;48.090;9.754;2023-03-01T04:31:17;1.30;99.90
22966;DHT22;11649;48.090;9.754;2023-03-01T04:33:50;1.30;99.90
22966;DHT22;11649;48.090;9.754;2023-03-01T04:36:23;1.30;99.90
22966;DHT22;11649;48.090;9.754;2023-03-01T04:38:50;1.30;99.90
22966;DHT22;11649;48.090;9.754;2023-03-01T04:41:20;1.20;99.90
22966;DHT22;11649;48.090;9.754;2023-03-01T04:43:47;1.20;99.90
22966;DHT22;11649;48.090;9.754;2023-03-01T04:46:17;1.20;99.90
22966;DHT22;11649;48.090;9.754;2023-03-01T04:48:45;1.30;99.90
22966;DHT22;11649;48.090;9.754;2023-03-01T04:51:13;1.20;99.90
22966;DHT22;11649;48.090;9.754;2023-03-01T04:53:41;1.20;99.90
22966;DHT22;11649;48.090;9.754;2023-03-01T04:56:09;1.30;99.90
22966;DHT22;11649;48.090;9.754;2023-03-01T04:58:36;1.30;99.90
22966;DHT22;11649;48.090;9.754;2023-03-01T05:01:09;1.30;99.90
22966;DHT22;11649;48.090;9.754;2023-03-01T05:03:43;1.30;99.90
22966;DHT22;11649;48.090;9.754;2023-03-01T05:06:10;1.30;99.90
22966;DHT22;11649;48.090;9.754;2023-03-01T05:08:39;1.30;99.90
22966;DHT22;11649;48.090;9.754;2023-03-01T05:11:06;1.30;99.90
22966;DHT22;11649;48.090;9.754;2023-03-01T05:13:36;1.20;99.90
22966;DHT22;11649;48.090;9.754;2023-03-01T05:16:04;1.20;99.90
22966;DHT22;11649;48.090;9.754;2023-03-01T05:18:33;1.20;99.90
22966;DHT22;11649;48.090;9.754;2023-03-01T05:21:11;1.20;99.90
22966;DHT22;11649;48.090;9.754;2023-03-01T05:23:38;1.20;99.90
22966;DHT22;11649;48.090;9.754;2023-03-01T05:26:08;1.20;99.90
22966;DHT22;11649;48.090;9.754;2023-03-01T05:28:53;1.30;99.90
22966;DHT22;11649;48.090;9.754;2023-03-01T05:31:25;1.30;99.90
22966;DHT22;11649;48.090;9.754;2023-03-01T05:33:52;1.40;99.90
22966;DHT22;11649;48.090;9.754;2023-03-01T05:36:19;1.40;99.90
22966;DHT22;11649;48.090;9.754;2023-03-01T05:38:46;1.30;99.90
22966;DHT22;11649;48.090;9.754;2023-03-01T05:41:14;1.30;99.90
22966;DHT22;11649;48.090;9.754;2023-03-01T05:43:43;1.40;99.90
22966;DHT22;11649;48.090;9.754;2023-03-01T05:46:11;1.40;99.90
22966;DHT22;11649;48.090;9.754;2023-03-01T05:48:40;1.40;99.90
22966;DHT22;11649;48.090;9.754;2023-03-01T05:51:07;1.40;99.90
22966;DHT22;11649;48.090;9.754;2023-03-01T05:53:33;1.40;99.90
22966;DHT22;11649;48.090;9.754;2023-03-01T05:56:03;1.50;99.90
22966;DHT22;11649;48.090;9.754;2023-03-01T05:58:30;1.40;99.90
22966;DHT22;11649;48.090;9.754;2023-03-01T06:00:57;1.40;99.90
22966;DHT22;11649;48.090;9.754;2023-03-01T06:03:24;1.40;99.90
22966;DHT22;11649;48.090;9.754;2023-03-01T06:05:56;1.30;99.90
22966;DHT22;11649;48.090;9.754;2023-03-01T06:08:23;1.40;99.90
22966;DHT22;11649;48.090;9.754;2023-03-01T06:10:50;1.40;99.90
22966;DHT22;11649;48.090;9.754;2023-03-01T06:13:17;1.40;99.90
22966;DHT22;11649;48.090;9.754;2023-03-01T06:15:44;1.50;99.90
22966;DHT22;11649;48.090;9.754;2023-03-01T06:18:10;1.40;99.90
22966;DHT22;11649;48.090;9.754;2023-03-01T06:20:37;1.40;99.90
22966;DHT22;11649;48.090;9.754;2023-03-01T06:23:04;1.40;99.90
22966;DHT22;11649;48.090;9.754;2023-03-01T06:25:32;1.50;99.90
22966;DHT22;11649;48.090;9.754;2023-03-01T06:27:59;1.40;99.90
22966;DHT22;11649;48.090;9.754;2023-03-01T06:30:26;1.40;99.90
22966;DHT22;11649;48.090;9.754;2023-03-01T06:32:53;1.40;99.90
22966;DHT22;11649;48.090;9.754;2023-03-01T06:35:27;1.40;99.90
22966;DHT22;11649;48.090;9.754;2023-03-01T06:37:57;1.40;99.90
22966;DHT22;11649;48.090;9.754;2023-03-01T06:40:25;1.40;99.90
22966;DHT22;11649;48.090;9.754;2023-03-01T06:42:52;1.50;99.90
22966;DHT22;11649;48.090;9.754;2023-03-01T06:45:20;1.50;99.90
22966;DHT22;11649;48.090;9.754;2023-03-01T06:47:47;1.50;99.90
22966;DHT22;11649;48.090;9.754;2023-03-01T06:50:15;1.50;99.90
22966;DHT22;11649;48.090;9.754;2023-03-01T06:52:42;1.50;99.90
22966;DHT22;11649;48.090;9.754;2023-03-01T06:55:12;1.50;99.90
22966;DHT22;11649;48.090;9.754;2023-03-01T06:57:40;1.50;99.90
22966;DHT22;11649;48.090;9.754;2023-03-01T07:00:08;1.60;99.90
22966;DHT22;11649;48.090;9.754;2023-03-01T07:02:35;1.60;99.90
22966;DHT22;11649;48.090;9.754;2023-03-01T07:05:02;1.60;99.90
22966;DHT22;11649;48.090;9.754;2023-03-01T07:07:28;1.60;99.90
22966;DHT22;11649;48.090;9.754;2023-03-01T07:09:55;1.50;99.90
22966;DHT22;11649;48.090;9.754;2023-03-01T07:12:22;1.50;99.90
22966;DHT22;11649;48.090;9.754;2023-03-01T07:14:49;1.50;99.90
22966;DHT22;11649;48.090;9.754;2023-03-01T07:17:15;1.60;99.90
22966;DHT22;11649;48.090;9.754;2023-03-01T07:19:42;1.60;99.90
22966;DHT22;11649;48.090;9.754;2023-03-01T07:22:09;1.60;99.90
22966;DHT22;11649;48.090;9.754;2023-03-01T07:24:36;1.50;99.90
22966;DHT22;11649;48.090;9.754;2023-03-01T07:27:03;1.50;99.90
22966;DHT22;11649;48.090;9.754;2023-03-01T07:29:30;1.50;99.90
22966;DHT22;11649;48.090;9.754;2023-03-01T07:31:56;1.60;99.90
22966;DHT22;11649;48.090;9.754;2023-03-01T07:34:23;1.50;99.90
22966;DHT22;11649;48.090;9.754;2023-03-01T07:36:50;1.50;99.90
22966;DHT22;11649;48.090;9.754;2023-03-01T07:39:17;1.50;99.90
22966;DHT22;11649;48.090;9.754;2023-03-01T07:41:45;1.50;99.90
22966;DHT22;11649;48.090;9.754;2023-03-01T07:44:12;1.50;99.90
22966;DHT22;11649;48.090;9.754;2023-03-01T07:46:38;1.50;99.90
22966;DHT22;11649;48.090;9.754;2023-03-01T07:49:05;1.50;99.90
22966;DHT22;11649;48.090;9.754;2023-03-01T07:51:34;1.50;99.90
22966;DHT22;11649;48.090;9.754;2023-03-01T07:54:00;1.50;99.90
22966;DHT22;11649;48.090;9.754;2023-03-01T07:56:27;1.50;99.90
22966;DHT22;11649;48.090;9.754;2023-03-01T07:58:55;1.60;99.90
22966;DHT22;11649;48.090;9.754;2023-03-01T08:01:21;1.60;99.90
22966;DHT22;11649;48.090;9.754;2023-03-01T08:03:48;1.60;99.90
22966;DHT22;11649;48.090;9.754;2023-03-01T08:06:16;1.60;99.90
22966;DHT22;11649;48.090;9.754;2023-03-01T08:08:44;1.70;99.90
22966;DHT22;11649;48.090;9.754;2023-03-01T08:11:12;1.70;99.90
22966;DHT22;11649;48.090;9.754;2023-03-01T08:13:40;1.70;99.90
22966;DHT22;11649;48.090;9.754;2023-03-01T08:16:12;1.70;99.90
22966;DHT22;11649;48.090;9.754;2023-03-01T08:18:39;1.70;99.90
22966;DHT22;11649;48.090;9.754;2023-03-01T08:21:12;1.80;99.90
22966;DHT22;11649;48.090;9.754;2023-03-01T08:23:39;1.80;99.90
22966;DHT22;11649;48.090;9.754;2023-03-01T08:26:15;1.80;99.30
22966;DHT22;11649;48.090;9.754;2023-03-01T08:28:43;1.80;99.80
22966;DHT22;11649;48.090;9.754;2023-03-01T08:31:24;1.90;98.90
22966;DHT22;11649;48.090;9.754;2023-03-01T08:33:55;1.90;99.50
22966;DHT22;11649;48.090;9.754;2023-03-01T08:36:24;1.90;99.30
22966;DHT22;11649;48.090;9.754;2023-03-01T08:38:52;2.00;98.10
22966;DHT22;11649;48.090;9.754;2023-03-01T08:41:19;2.00;98.60
22966;DHT22;11649;48.090;9.754;2023-03-01T08:43:45;1.90;99.50
22966;DHT22;11649;48.090;9.754;2023-03-01T08:46:13;1.90;98.60
22966;DHT22;11649;48.090;9.754;2023-03-01T08:48:40;2.00;99.60
22966;DHT22;11649;48.090;9.754;2023-03-01T08:51:10;2.00;99.80
22966;DHT22;11649;48.090;9.754;2023-03-01T08:53:37;2.10;99.80
22966;DHT22;11649;48.090;9.754;2023-03-01T08:56:04;2.20;99.40
22966;DHT22;11649;48.090;9.754;2023-03-01T08:58:31;2.20;97.00
22966;DHT22;11649;48.090;9.754;2023-03-01T09:00:58;2.20;97.20
22966;DHT22;11649;48.090;9.754;2023-03-01T09:03:25;2.20;97.80
22966;DHT22;11649;48.090;9.754;2023-03-01T09:05:53;2.20;97.40
22966;DHT22;11649;48.090;9.754;2023-03-01T09:08:20;2.30;97.40
22966;DHT22;11649;48.090;9.754;2023-03-01T09:10:47;2.40;95.60
22966;DHT22;11649;48.090;9.754;2023-03-01T09:13:13;2.40;95.90
22966;DHT22;11649;48.090;9.754;2023-03-01T09:15:40;2.40;96.80
22966;DHT22;11649;48.090;9.754;2023-03-01T09:18:07;2.40;96.50
22966;DHT22;11649;48.090;9.754;2023-03-01T09:20:33;2.40;95.80
22966;DHT22;11649;48.090;9.754;2023-03-01T09:23:00;2.90;96.30
22966;DHT22;11649;48.090;9.754;2023-03-01T09:25:27;2.50;97.00
22966;DHT22;11649;48.090;9.754;2023-03-01T09:27:55;2.50;96.60
22966;DHT22;11649;48.090;9.754;2023-03-01T09:30:22;2.50;96.00
22966;DHT22;11649;48.090;9.754;2023-03-01T09:32:48;2.50;96.40
22966;DHT22;11649;48.090;9.754;2023-03-01T09:35:15;2.40;95.60
22966;DHT22;11649;48.090;9.754;2023-03-01T09:37:42;2.50;96.80
22966;DHT22;11649;48.090;9.754;2023-03-01T09:40:17;2.50;96.00
22966;DHT22;11649;48.090;9.754;2023-03-01T09:43:11;2.50;96.00
22966;DHT22;11649;48.090;9.754;2023-03-01T09:45:41;2.60;94.20
22966;DHT22;11649;48.090;9.754;2023-03-01T09:48:16;2.60;94.20
22966;DHT22;11649;48.090;9.754;2023-03-01T09:50:45;2.50;95.70
22966;DHT22;11649;48.090;9.754;2023-03-01T09:53:18;2.60;95.20
22966;DHT22;11649;48.090;9.754;2023-03-01T10:01:27;2.40;96.00
22966;DHT22;11649;48.090;9.754;2023-03-01T10:09:42;2.50;96.10
22966;DHT22;11649;48.090;9.754;2023-03-01T10:12:17;2.60;96.00
22966;DHT22;11649;48.090;9.754;2023-03-01T10:15:17;2.70;95.30
22966;DHT22;11649;48.090;9.754;2023-03-01T10:18:00;2.70;96.00
22966;DHT22;11649;48.090;9.754;2023-03-01T10:21:00;2.80;95.20
22966;DHT22;11649;48.090;9.754;2023-03-01T10:23:30;2.90;94.30
22966;DHT22;11649;48.090;9.754;2023-03-01T10:26:30;2.90;94.10
22966;DHT22;11649;48.090;9.754;2023-03-01T10:29:08;2.90;94.60
22966;DHT22;11649;48.090;9.754;2023-03-01T10:34:15;2.80;94.60
22966;DHT22;11649;48.090;9.754;2023-03-01T10:36:44;2.80;94.70
22966;DHT22;11649;48.090;9.754;2023-03-01T10:39:18;2.70;95.90
22966;DHT22;11649;48.090;9.754;2023-03-01T10:42:03;2.80;95.60
22966;DHT22;11649;48.090;9.754;2023-03-01T10:44:45;2.80;94.60
22966;DHT22;11649;48.090;9.754;2023-03-01T10:47:24;2.90;95.10
22966;DHT22;11649;48.090;9.754;2023-03-01T10:52:22;3.00;93.30
22966;DHT22;11649;48.090;9.754;2023-03-01T10:54:58;3.00;94.00
22966;DHT22;11649;48.090;9.754;2023-03-01T10:57:32;3.00;93.80
22966;DHT22;11649;48.090;9.754;2023-03-01T11:00:20;3.00;93.90
22966;DHT22;11649;48.090;9.754;2023-03-01T11:03:11;3.10;93.50
22966;DHT22;11649;48.090;9.754;2023-03-01T11:05:53;3.10;94.30
22966;DHT22;11649;48.090;9.754;2023-03-01T11:13:32;3.10;93.50
22966;DHT22;11649;48.090;9.754;2023-03-01T11:16:05;3.10;93.90
22966;DHT22;11649;48.090;9.754;2023-03-01T11:18:33;3.20;94.10
22966;DHT22;11649;48.090;9.754;2023-03-01T11:21:13;3.30;93.00
22966;DHT22;11649;48.090;9.754;2023-03-01T11:23:43;3.30;92.50
22966;DHT22;11649;48.090;9.754;2023-03-01T11:26:13;3.20;93.70
22966;DHT22;11649;48.090;9.754;2023-03-01T11:28:42;3.30;93.50
22966;DHT22;11649;48.090;9.754;2023-03-01T11:31:11;3.40;92.40
22966;DHT22;11649;48.090;9.754;2023-03-01T11:34:14;3.30;93.10
22966;DHT22;11649;48.090;9.754;2023-03-01T11:36:51;3.50;92.60
22966;DHT22;11649;48.090;9.754;2023-03-01T11:39:51;3.50;92.30
22966;DHT22;11649;48.090;9.754;2023-03-01T11:44:55;3.60;91.40
22966;DHT22;11649;48.090;9.754;2023-03-01T11:50:33;3.70;91.80
22966;DHT22;11649;48.090;9.754;2023-03-01T11:53:28;3.60;91.50
22966;DHT22;11649;48.090;9.754;2023-03-01T11:56:13;3.60;90.80
22966;DHT22;11649;48.090;9.754;2023-03-01T12:04:36;3.60;91.20
22966;DHT22;11649;48.090;9.754;2023-03-01T12:07:32;3.80;91.50
22966;DHT22;11649;48.090;9.754;2023-03-01T12:10:28;3.80;92.30
22966;DHT22;11649;48.090;9.754;2023-03-01T12:13:17;3.80;92.00
22966;DHT22;11649;48.090;9.754;2023-03-01T12:18:46;4.10;90.00
22966;DHT22;11649;48.090;9.754;2023-03-01T12:21:54;4.20;90.40
22966;DHT22;11649;48.090;9.754;2023-03-01T12:24:51;4.30;90.20
22966;DHT22;11649;48.090;9.754;2023-03-01T12:33:13;4.70;86.00
22966;DHT22;11649;48.090;9.754;2023-03-01T12:35:53;4.70;86.80
22966;DHT22;11649;48.090;9.754;2023-03-01T12:38:50;4.50;87.50
22966;DHT22;11649;48.090;9.754;2023-03-01T12:41:48;4.50;87.60
22966;DHT22;11649;48.090;9.754;2023-03-01T12:49:28;5.00;84.00
22966;DHT22;11649;48.090;9.754;2023-03-01T12:52:15;5.00;87.60
22966;DHT22;11649;48.090;9.754;2023-03-01T12:54:44;4.80;87.00
22966;DHT22;11649;48.090;9.754;2023-03-01T12:57:23;4.90;86.80
22966;DHT22;11649;48.090;9.754;2023-03-01T13:00:17;5.20;86.10
22966;DHT22;11649;48.090;9.754;2023-03-01T13:03:38;5.30;83.30
22966;DHT22;11649;48.090;9.754;2023-03-01T13:05:51;5.40;85.80
22966;DHT22;11649;48.090;9.754;2023-03-01T13:08:42;5.40;85.40
22966;DHT22;11649;48.090;9.754;2023-03-01T13:11:30;5.40;84.10
22966;DHT22;11649;48.090;9.754;2023-03-01T13:16:53;5.30;84.20
22966;DHT22;11649;48.090;9.754;2023-03-01T13:19:22;5.50;83.80
22966;DHT22;11649;48.090;9.754;2023-03-01T13:21:51;5.60;83.60
22966;DHT22;11649;48.090;9.754;2023-03-01T13:24:37;5.70;82.10
22966;DHT22;11649;48.090;9.754;2023-03-01T13:32:24;6.50;78.20
22966;DHT22;11649;48.090;9.754;2023-03-01T13:37:46;6.50;78.40
22966;DHT22;11649;48.090;9.754;2023-03-01T13:42:47;6.80;75.30
22966;DHT22;11649;48.090;9.754;2023-03-01T13:45:42;7.00;76.90
22966;DHT22;11649;48.090;9.754;2023-03-01T13:48:22;7.60;72.40
22966;DHT22;11649;48.090;9.754;2023-03-01T13:50:54;7.90;71.60
22966;DHT22;11649;48.090;9.754;2023-03-01T13:53:25;8.20;68.80
22966;DHT22;11649;48.090;9.754;2023-03-01T13:55:56;8.10;69.10
22966;DHT22;11649;48.090;9.754;2023-03-01T13:58:51;8.70;68.20
22966;DHT22;11649;48.090;9.754;2023-03-01T14:01:26;9.60;63.50
22966;DHT22;11649;48.090;9.754;2023-03-01T14:03:54;10.80;61.70
22966;DHT22;11649;48.090;9.754;2023-03-01T14:06:27;12.10;55.70
22966;DHT22;11649;48.090;9.754;2023-03-01T14:09:27;13.10;54.70
22966;DHT22;11649;48.090;9.754;2023-03-01T14:12:43;13.30;49.60
22966;DHT22;11649;48.090;9.754;2023-03-01T14:15:35;12.50;52.10
22966;DHT22;11649;48.090;9.754;2023-03-01T14:20:47;14.00;50.10
22966;DHT22;11649;48.090;9.754;2023-03-01T14:23:22;14.20;48.70
22966;DHT22;11649;48.090;9.754;2023-03-01T14:25:57;13.30;49.40
22966;DHT22;11649;48.090;9.754;2023-03-01T14:30:55;10.10;57.60
22966;DHT22;11649;48.090;9.754;2023-03-01T14:33:24;10.70;57.40
22966;DHT22;11649;48.090;9.754;2023-03-01T14:36:02;10.10;57.50
22966;DHT22;11649;48.090;9.754;2023-03-01T14:38:37;10.00;59.40
22966;DHT22;11649;48.090;9.754;2023-03-01T14:43:44;9.40;60.10
22966;DHT22;11649;48.090;9.754;2023-03-01T14:46:22;9.20;61.10
22966;DHT22;11649;48.090;9.754;2023-03-01T14:48:57;9.40;61.70
22966;DHT22;11649;48.090;9.754;2023-03-01T14:51:27;9.80;60.60
22966;DHT22;11649;48.090;9.754;2023-03-01T14:53:55;10.40;59.20
22966;DHT22;11649;48.090;9.754;2023-03-01T14:56:22;11.00;57.50
22966;DHT22;11649;48.090;9.754;2023-03-01T14:58:53;11.30;57.20
22966;DHT22;11649;48.090;9.754;2023-03-01T15:01:24;11.60;55.30
22966;DHT22;11649;48.090;9.754;2023-03-01T15:03:51;11.80;55.30
22966;DHT22;11649;48.090;9.754;2023-03-01T15:06:21;11.80;55.80
22966;DHT22;11649;48.090;9.754;2023-03-01T15:08:51;11.80;53.60
22966;DHT22;11649;48.090;9.754;2023-03-01T15:11:30;11.20;56.50
22966;DHT22;11649;48.090;9.754;2023-03-01T15:13:57;10.70;56.90
22966;DHT22;11649;48.090;9.754;2023-03-01T15:16:31;10.40;57.90
22966;DHT22;11649;48.090;9.754;2023-03-01T15:19:05;10.40;59.10
22966;DHT22;11649;48.090;9.754;2023-03-01T15:21:33;10.20;58.90
22966;DHT22;11649;48.090;9.754;2023-03-01T15:26:41;9.80;59.90
22966;DHT22;11649;48.090;9.754;2023-03-01T15:29:20;9.50;60.40
22966;DHT22;11649;48.090;9.754;2023-03-01T15:31:59;8.80;63.80
22966;DHT22;11649;48.090;9.754;2023-03-01T15:34:35;8.80;63.20
22966;DHT22;11649;48.090;9.754;2023-03-01T15:37:36;8.50;64.40
22966;DHT22;11649;48.090;9.754;2023-03-01T15:40:48;8.40;64.60
22966;DHT22;11649;48.090;9.754;2023-03-01T15:46:04;8.20;65.90
22966;DHT22;11649;48.090;9.754;2023-03-01T15:48:31;8.00;66.70
22966;DHT22;11649;48.090;9.754;2023-03-01T15:50:59;7.90;67.10
22966;DHT22;11649;48.090;9.754;2023-03-01T15:53:27;7.60;68.40
22966;DHT22;11649;48.090;9.754;2023-03-01T15:55:54;7.40;69.00
22966;DHT22;11649;48.090;9.754;2023-03-01T15:58:25;7.30;69.60
22966;DHT22;11649;48.090;9.754;2023-03-01T16:00:52;7.10;71.10
22966;DHT22;11649;48.090;9.754;2023-03-01T16:03:27;6.90;71.50
22966;DHT22;11649;48.090;9.754;2023-03-01T16:05:54;6.90;72.10
22966;DHT22;11649;48.090;9.754;2023-03-01T16:08:21;7.00;72.00
22966;DHT22;11649;48.090;9.754;2023-03-01T16:10:48;6.90;72.70
22966;DHT22;11649;48.090;9.754;2023-03-01T16:13:17;6.80;72.60
22966;DHT22;11649;48.090;9.754;2023-03-01T16:15:44;6.80;73.90
22966;DHT22;11649;48.090;9.754;2023-03-01T16:18:11;6.80;74.60
22966;DHT22;11649;48.090;9.754;2023-03-01T16:20:39;6.60;74.50
22966;DHT22;11649;48.090;9.754;2023-03-01T16:23:08;6.50;75.40
22966;DHT22;11649;48.090;9.754;2023-03-01T16:25:36;6.40;76.40
22966;DHT22;11649;48.090;9.754;2023-03-01T16:28:04;6.40;77.30
22966;DHT22;11649;48.090;9.754;2023-03-01T16:30:36;6.30;77.70
22966;DHT22;11649;48.090;9.754;2023-03-01T16:33:04;6.10;78.70
22966;DHT22;11649;48.090;9.754;2023-03-01T16:35:51;6.00;80.20
22966;DHT22;11649;48.090;9.754;2023-03-01T16:38:18;5.90;80.50
22966;DHT22;11649;48.090;9.754;2023-03-01T16:40:51;5.90;81.70
22966;DHT22;11649;48.090;9.754;2023-03-01T16:43:18;5.90;81.60
22966;DHT22;11649;48.090;9.754;2023-03-01T16:45:44;5.90;81.10
22966;DHT22;11649;48.090;9.754;2023-03-01T16:48:13;5.90;81.60
22966;DHT22;11649;48.090;9.754;2023-03-01T16:50:40;5.80;83.10
22966;DHT22;11649;48.090;9.754;2023-03-01T16:53:06;5.70;83.00
22966;DHT22;11649;48.090;9.754;2023-03-01T16:55:33;5.70;82.80
22966;DHT22;11649;48.090;9.754;2023-03-01T16:58:00;5.60;84.40
22966;DHT22;11649;48.090;9.754;2023-03-01T17:00:27;5.60;84.50
22966;DHT22;11649;48.090;9.754;2023-03-01T17:02:54;5.60;85.20
22966;DHT22;11649;48.090;9.754;2023-03-01T17:05:21;5.60;85.10
22966;DHT22;11649;48.090;9.754;2023-03-01T17:07:50;5.60;85.90
22966;DHT22;11649;48.090;9.754;2023-03-01T17:10:17;5.50;85.70
22966;DHT22;11649;48.090;9.754;2023-03-01T17:12:44;5.40;86.90
22966;DHT22;11649;48.090;9.754;2023-03-01T17:15:11;5.40;86.80
22966;DHT22;11649;48.090;9.754;2023-03-01T17:17:38;5.60;86.40
22966;DHT22;11649;48.090;9.754;2023-03-01T17:20:05;5.50;86.80
22966;DHT22;11649;48.090;9.754;2023-03-01T17:22:32;5.40;87.40
22966;DHT22;11649;48.090;9.754;2023-03-01T17:24:59;5.40;88.10
22966;DHT22;11649;48.090;9.754;2023-03-01T17:27:26;5.40;88.40
22966;DHT22;11649;48.090;9.754;2023-03-01T17:29:53;5.30;89.00
22966;DHT22;11649;48.090;9.754;2023-03-01T17:32:20;5.30;89.60
22966;DHT22;11649;48.090;9.754;2023-03-01T17:34:47;5.30;89.70
22966;DHT22;11649;48.090;9.754;2023-03-01T17:37:13;5.30;90.00